createdAt,value
2017-03-13T00:00:42.326Z,988.86
2017-03-13T00:01:53.066Z,988.88
2017-03-13T00:03:03.395Z,988.89
2017-03-13T00:04:13.720Z,988.86
2017-03-13T00:05:24.464Z,988.85
2017-03-13T00:06:34.784Z,988.81
2017-03-13T00:07:45.514Z,988.85
2017-03-13T00:08:56.226Z,988.82
2017-03-13T00:10:06.927Z,988.86
2017-03-13T00:11:17.242Z,988.84
2017-03-13T00:12:27.550Z,988.89
2017-03-13T00:13:37.866Z,988.88
2017-03-13T00:14:48.577Z,988.86
2017-03-13T00:15:59.322Z,988.96
2017-03-13T00:17:09.631Z,988.9
2017-03-13T00:18:20.401Z,988.9
2017-03-13T00:19:30.710Z,988.96
2017-03-13T00:20:41.441Z,988.9
2017-03-13T00:21:52.158Z,988.93
2017-03-13T00:23:02.463Z,988.94
2017-03-13T00:24:13.185Z,988.87
2017-03-13T00:25:23.904Z,988.88
2017-03-13T00:26:34.636Z,988.88
2017-03-13T00:27:44.962Z,988.85
2017-03-13T00:28:55.307Z,988.9
2017-03-13T00:30:06.021Z,988.94
2017-03-13T00:31:16.742Z,988.96
2017-03-13T00:32:27.454Z,988.92
2017-03-13T00:33:38.180Z,988.95
2017-03-13T00:34:48.915Z,988.98
2017-03-13T00:35:59.635Z,989.03
2017-03-13T00:37:09.949Z,989.05
2017-03-13T00:38:20.670Z,989.07
2017-03-13T00:39:31.027Z,989.06
2017-03-13T00:40:41.743Z,989.04
2017-03-13T00:41:52.452Z,989.09
2017-03-13T00:43:03.154Z,989.08
2017-03-13T00:44:13.876Z,989.02
2017-03-13T00:45:24.598Z,989.02
2017-03-13T00:46:35.316Z,988.97
2017-03-13T00:47:45.618Z,989.01
2017-03-13T00:48:56.333Z,988.95
2017-03-13T00:50:07.040Z,988.93
2017-03-13T00:51:17.360Z,988.93
2017-03-13T00:52:28.079Z,988.95
2017-03-13T00:53:38.796Z,988.88
2017-03-13T00:54:49.515Z,988.93
2017-03-13T00:56:00.236Z,988.92
2017-03-13T00:57:10.970Z,988.9
2017-03-13T00:58:21.703Z,988.91
2017-03-13T00:59:32.445Z,988.93
2017-03-13T01:00:42.793Z,988.89
2017-03-13T01:01:53.139Z,988.92
2017-03-13T01:03:03.856Z,988.96
2017-03-13T01:04:14.580Z,988.96
2017-03-13T01:05:25.311Z,988.91
2017-03-13T01:06:36.027Z,988.91
2017-03-13T01:07:46.772Z,988.94
2017-03-13T01:08:57.495Z,988.94
2017-03-13T01:10:08.213Z,988.91
2017-03-13T01:11:18.170Z,988.94
2017-03-13T01:12:28.887Z,988.96
2017-03-13T01:13:39.623Z,988.93
2017-03-13T01:14:50.335Z,988.86
2017-03-13T01:16:01.056Z,988.87
2017-03-13T01:17:11.757Z,988.9
2017-03-13T01:18:22.483Z,988.87
2017-03-13T01:19:33.213Z,988.95
2017-03-13T01:20:43.948Z,988.87
2017-03-13T01:21:54.670Z,988.84
2017-03-13T01:23:05.389Z,988.81
2017-03-13T01:24:16.113Z,988.79
2017-03-13T01:25:26.436Z,988.76
2017-03-13T01:26:37.160Z,988.75
2017-03-13T01:27:47.895Z,988.76
2017-03-13T01:28:58.608Z,988.77
2017-03-13T01:30:08.931Z,988.72
2017-03-13T01:31:19.634Z,988.71
2017-03-13T01:32:29.947Z,988.65
2017-03-13T01:33:40.664Z,988.6
2017-03-13T01:34:50.979Z,988.62
2017-03-13T01:36:01.293Z,988.6
2017-03-13T01:37:12.018Z,988.58
2017-03-13T01:38:22.743Z,988.61
2017-03-13T01:39:33.461Z,988.61
2017-03-13T01:40:44.169Z,988.6
2017-03-13T01:41:54.889Z,988.69
2017-03-13T01:43:05.590Z,988.6
2017-03-13T01:44:15.886Z,988.65
2017-03-13T01:45:26.597Z,988.63
2017-03-13T01:46:37.311Z,988.68
2017-03-13T01:47:48.028Z,988.64
2017-03-13T01:48:58.738Z,988.6
2017-03-13T01:50:09.091Z,988.59
2017-03-13T01:51:18.604Z,988.64
2017-03-13T01:52:29.338Z,988.64
2017-03-13T01:53:40.076Z,988.57
2017-03-13T01:54:50.793Z,988.54
2017-03-13T01:56:01.122Z,988.58
2017-03-13T01:57:11.906Z,988.54
2017-03-13T01:58:22.617Z,988.54
2017-03-13T01:59:32.923Z,988.55
2017-03-13T02:00:43.639Z,988.54
2017-03-13T02:01:54.373Z,988.5
2017-03-13T02:03:05.099Z,988.48
2017-03-13T02:04:15.825Z,988.46
2017-03-13T02:05:26.140Z,988.49
2017-03-13T02:06:36.922Z,988.45
2017-03-13T02:07:47.646Z,988.48
2017-03-13T02:08:58.364Z,988.48
2017-03-13T02:10:09.089Z,988.46
2017-03-13T02:11:19.826Z,988.44
2017-03-13T02:12:30.527Z,988.44
2017-03-13T02:13:41.239Z,988.46
2017-03-13T02:14:51.966Z,988.48
2017-03-13T02:16:02.306Z,988.46
2017-03-13T02:17:13.035Z,988.48
2017-03-13T02:18:23.756Z,988.47
2017-03-13T02:19:34.075Z,988.49
2017-03-13T02:20:44.784Z,988.45
2017-03-13T02:21:55.508Z,988.42
2017-03-13T02:23:06.243Z,988.4
2017-03-13T02:24:16.971Z,988.39
2017-03-13T02:25:27.689Z,988.36
2017-03-13T02:26:38.419Z,988.32
2017-03-13T02:27:48.743Z,988.34
2017-03-13T02:28:59.056Z,988.29
2017-03-13T02:30:09.379Z,988.29
2017-03-13T02:31:20.085Z,988.25
2017-03-13T02:32:30.783Z,988.28
2017-03-13T02:33:41.535Z,988.26
2017-03-13T02:34:52.260Z,988.23
2017-03-13T02:36:02.574Z,988.22
2017-03-13T02:37:13.279Z,988.24
2017-03-13T02:38:24.020Z,988.14
2017-03-13T02:39:34.728Z,988.1
2017-03-13T02:40:45.438Z,988.12
2017-03-13T02:41:56.166Z,988.16
2017-03-13T02:43:06.896Z,988.12
2017-03-13T02:44:17.605Z,988.1
2017-03-13T02:45:28.328Z,988.05
2017-03-13T02:46:39.042Z,988.05
2017-03-13T02:47:49.761Z,988.06
2017-03-13T02:49:00.484Z,988.02
2017-03-13T02:50:11.218Z,987.97
2017-03-13T02:51:21.938Z,988.06
2017-03-13T02:52:32.273Z,988.04
2017-03-13T02:53:42.601Z,988.03
2017-03-13T02:54:53.308Z,987.99
2017-03-13T02:56:04.022Z,988.04
2017-03-13T02:57:14.745Z,988.01
2017-03-13T02:58:25.474Z,988.02
2017-03-13T02:59:36.205Z,987.99
2017-03-13T03:00:46.159Z,987.99
2017-03-13T03:01:56.879Z,988.05
2017-03-13T03:03:07.577Z,988.05
2017-03-13T03:04:18.363Z,988.04
2017-03-13T03:05:29.085Z,987.99
2017-03-13T03:06:39.818Z,987.99
2017-03-13T03:07:50.525Z,987.98
2017-03-13T03:09:01.249Z,988
2017-03-13T03:10:11.563Z,987.98
2017-03-13T03:11:22.326Z,987.98
2017-03-13T03:12:33.059Z,987.92
2017-03-13T03:13:43.789Z,987.86
2017-03-13T03:14:54.506Z,987.8
2017-03-13T03:16:07.234Z,987.78
2017-03-13T03:17:17.956Z,987.77
2017-03-13T03:18:28.689Z,987.78
2017-03-13T03:19:39.405Z,987.78
2017-03-13T03:20:50.109Z,987.81
2017-03-13T03:22:00.821Z,987.82
2017-03-13T03:23:11.140Z,987.79
2017-03-13T03:24:21.861Z,987.74
2017-03-13T03:25:32.581Z,987.76
2017-03-13T03:26:42.902Z,987.73
2017-03-13T03:27:53.621Z,987.73
2017-03-13T03:29:04.330Z,987.72
2017-03-13T03:30:15.063Z,987.71
2017-03-13T03:31:25.798Z,987.67
2017-03-13T03:32:36.516Z,987.68
2017-03-13T03:33:47.223Z,987.68
2017-03-13T03:34:57.935Z,987.68
2017-03-13T03:36:07.844Z,987.74
2017-03-13T03:37:18.546Z,987.74
2017-03-13T03:38:29.252Z,987.72
2017-03-13T03:39:39.992Z,987.71
2017-03-13T03:40:50.706Z,987.78
2017-03-13T03:42:01.406Z,987.71
2017-03-13T03:43:11.317Z,987.72
2017-03-13T03:44:22.040Z,987.76
2017-03-13T03:45:32.761Z,987.73
2017-03-13T03:46:43.555Z,987.74
2017-03-13T03:47:53.869Z,987.75
2017-03-13T03:49:04.589Z,987.77
2017-03-13T03:50:15.318Z,987.75
2017-03-13T03:51:26.035Z,987.72
2017-03-13T03:52:36.753Z,987.66
2017-03-13T03:53:47.066Z,987.66
2017-03-13T03:54:57.395Z,987.67
2017-03-13T03:56:08.129Z,987.69
2017-03-13T03:57:18.851Z,987.68
2017-03-13T03:58:29.567Z,987.59
2017-03-13T03:59:40.280Z,987.55
2017-03-13T04:00:51.001Z,987.54
2017-03-13T04:02:01.708Z,987.57
2017-03-13T04:03:11.654Z,987.63
2017-03-13T04:04:22.387Z,987.6
2017-03-13T04:05:33.108Z,987.57
2017-03-13T04:06:43.825Z,987.61
2017-03-13T04:07:54.534Z,987.63
2017-03-13T04:09:05.239Z,987.62
2017-03-13T04:10:15.966Z,987.63
2017-03-13T04:11:26.668Z,987.59
2017-03-13T04:12:37.382Z,987.62
2017-03-13T04:13:48.110Z,987.66
2017-03-13T04:14:58.833Z,987.69
2017-03-13T04:16:09.557Z,987.75
2017-03-13T04:17:19.886Z,987.71
2017-03-13T04:18:30.595Z,987.73
2017-03-13T04:19:40.911Z,987.72
2017-03-13T04:20:51.626Z,987.73
2017-03-13T04:22:02.332Z,987.66
2017-03-13T04:23:12.651Z,987.65
2017-03-13T04:24:23.367Z,987.68
2017-03-13T04:25:34.104Z,987.59
2017-03-13T04:26:44.436Z,987.64
2017-03-13T04:27:55.154Z,987.64
2017-03-13T04:29:05.872Z,987.64
2017-03-13T04:30:16.589Z,987.58
2017-03-13T04:31:27.296Z,987.53
2017-03-13T04:32:37.996Z,987.54
2017-03-13T04:33:48.722Z,987.54
2017-03-13T04:34:59.423Z,987.48
2017-03-13T04:36:10.138Z,987.51
2017-03-13T04:37:20.874Z,987.44
2017-03-13T04:38:31.591Z,987.44
2017-03-13T04:39:42.302Z,987.39
2017-03-13T04:40:52.620Z,987.38
2017-03-13T04:42:03.319Z,987.37
2017-03-13T04:43:14.034Z,987.46
2017-03-13T04:44:24.748Z,987.46
2017-03-13T04:45:35.463Z,987.43
2017-03-13T04:46:46.191Z,987.5
2017-03-13T04:47:56.907Z,987.45
2017-03-13T04:49:07.651Z,987.41
2017-03-13T04:50:17.999Z,987.39
2017-03-13T04:51:28.721Z,987.38
2017-03-13T04:52:39.448Z,987.32
2017-03-13T04:53:50.181Z,987.34
2017-03-13T04:55:00.889Z,987.36
2017-03-13T04:56:11.608Z,987.31
2017-03-13T04:57:22.340Z,987.34
2017-03-13T04:58:33.067Z,987.3
2017-03-13T04:59:43.825Z,987.33
2017-03-13T05:00:54.547Z,987.25
2017-03-13T05:02:05.271Z,987.29
2017-03-13T05:03:15.206Z,987.29
2017-03-13T05:04:25.128Z,987.25
2017-03-13T05:05:35.847Z,987.28
2017-03-13T05:06:46.179Z,987.22
2017-03-13T05:07:56.527Z,987.19
2017-03-13T05:09:07.250Z,987.21
2017-03-13T05:10:17.976Z,987.24
2017-03-13T05:11:28.680Z,987.29
2017-03-13T05:12:39.401Z,987.24
2017-03-13T05:13:50.117Z,987.25
2017-03-13T05:15:00.065Z,987.31
2017-03-13T05:16:10.788Z,987.24
2017-03-13T05:17:21.510Z,987.24
2017-03-13T05:18:32.224Z,987.18
2017-03-13T05:19:42.953Z,987.14
2017-03-13T05:20:53.656Z,987.09
2017-03-13T05:22:04.367Z,987.08
2017-03-13T05:23:15.079Z,987.06
2017-03-13T05:24:25.801Z,987.08
2017-03-13T05:25:36.518Z,987.12
2017-03-13T05:26:46.845Z,987.13
2017-03-13T05:27:57.568Z,987.15
2017-03-13T05:29:07.880Z,987.17
2017-03-13T05:30:18.606Z,987.16
2017-03-13T05:31:29.312Z,987.23
2017-03-13T05:32:39.229Z,987.21
2017-03-13T05:33:49.541Z,987.14
2017-03-13T05:35:00.259Z,987.15
2017-03-13T05:36:10.565Z,987.08
2017-03-13T05:37:20.904Z,987.06
2017-03-13T05:38:31.628Z,987.1
2017-03-13T05:39:41.941Z,987.1
2017-03-13T05:40:52.268Z,987.16
2017-03-13T05:42:02.588Z,987.21
2017-03-13T05:43:13.300Z,987.18
2017-03-13T05:44:24.020Z,987.14
2017-03-13T05:45:34.719Z,987.18
2017-03-13T05:46:45.040Z,987.17
2017-03-13T05:47:55.772Z,987.14
2017-03-13T05:49:06.481Z,987.08
2017-03-13T05:50:17.178Z,987.11
2017-03-13T05:51:27.917Z,987.16
2017-03-13T05:52:38.618Z,987.11
2017-03-13T05:53:49.338Z,987.18
2017-03-13T05:55:00.397Z,987.22
2017-03-13T05:56:10.746Z,987.2
2017-03-13T05:57:21.447Z,987.16
2017-03-13T05:58:32.181Z,987.15
2017-03-13T05:59:42.894Z,987.21
2017-03-13T06:00:53.673Z,987.14
2017-03-13T06:02:04.385Z,987.19
2017-03-13T06:03:14.693Z,987.09
2017-03-13T06:04:25.418Z,987.07
2017-03-13T06:05:35.765Z,987.15
2017-03-13T06:06:46.481Z,987.05
2017-03-13T06:07:57.194Z,987.07
2017-03-13T06:09:07.881Z,987.08
2017-03-13T06:10:18.580Z,987.06
2017-03-13T06:11:29.292Z,987.15
2017-03-13T06:12:39.894Z,987.22
2017-03-13T06:13:50.610Z,987.25
2017-03-13T06:15:01.336Z,987.29
2017-03-13T06:16:12.074Z,987.29
2017-03-13T06:17:22.797Z,987.3
2017-03-13T06:18:33.505Z,987.27
2017-03-13T06:19:44.218Z,987.3
2017-03-13T06:20:54.569Z,987.31
2017-03-13T06:22:05.272Z,987.27
2017-03-13T06:23:15.584Z,987.26
2017-03-13T06:24:25.907Z,987.33
2017-03-13T06:25:36.629Z,987.31
2017-03-13T06:26:47.344Z,987.36
2017-03-13T06:27:57.694Z,987.35
2017-03-13T06:29:08.414Z,987.32
2017-03-13T06:30:19.126Z,987.36
2017-03-13T06:31:29.855Z,987.34
2017-03-13T06:32:40.579Z,987.38
2017-03-13T06:33:51.290Z,987.39
2017-03-13T06:35:02.015Z,987.35
2017-03-13T06:36:12.725Z,987.33
2017-03-13T06:37:23.445Z,987.35
2017-03-13T06:38:34.162Z,987.36
2017-03-13T06:39:44.875Z,987.32
2017-03-13T06:40:55.588Z,987.36
2017-03-13T06:42:05.924Z,987.34
2017-03-13T06:43:16.250Z,987.37
2017-03-13T06:44:26.583Z,987.4
2017-03-13T06:45:37.285Z,987.41
2017-03-13T06:46:48.028Z,987.46
2017-03-13T06:47:58.732Z,987.48
2017-03-13T06:49:09.450Z,987.46
2017-03-13T06:50:20.189Z,987.41
2017-03-13T06:51:30.911Z,987.43
2017-03-13T06:52:41.627Z,987.44
2017-03-13T06:53:52.342Z,987.46
2017-03-13T06:55:02.671Z,987.49
2017-03-13T06:56:13.001Z,987.46
2017-03-13T06:57:23.718Z,987.44
2017-03-13T06:58:33.635Z,987.47
2017-03-13T06:59:44.368Z,987.46
2017-03-13T07:00:55.090Z,987.48
2017-03-13T07:02:05.407Z,987.46
2017-03-13T07:03:15.717Z,987.49
2017-03-13T07:04:26.439Z,987.43
2017-03-13T07:05:37.296Z,987.42
2017-03-13T07:06:47.599Z,987.41
2017-03-13T07:07:57.917Z,987.38
2017-03-13T07:09:08.648Z,987.4
2017-03-13T07:10:19.366Z,987.41
2017-03-13T07:11:29.693Z,987.4
2017-03-13T07:12:40.424Z,987.36
2017-03-13T07:13:50.765Z,987.34
2017-03-13T07:15:01.490Z,987.33
2017-03-13T07:16:11.830Z,987.33
2017-03-13T07:17:22.545Z,987.34
2017-03-13T07:18:32.879Z,987.28
2017-03-13T07:19:43.594Z,987.33
2017-03-13T07:20:54.310Z,987.33
2017-03-13T07:22:05.031Z,987.29
2017-03-13T07:23:15.334Z,987.3
2017-03-13T07:24:25.284Z,987.3
2017-03-13T07:25:35.200Z,987.3
2017-03-13T07:26:45.909Z,987.34
2017-03-13T07:27:56.623Z,987.32
2017-03-13T07:30:20.869Z,987.33
2017-03-13T07:31:31.241Z,987.34
2017-03-13T07:32:41.810Z,987.35
2017-03-13T07:33:52.514Z,987.31
2017-03-13T07:35:03.232Z,987.25
2017-03-13T07:36:13.969Z,987.22
2017-03-13T07:37:24.678Z,987.22
2017-03-13T07:38:35.407Z,987.29
2017-03-13T07:39:46.132Z,987.26
2017-03-13T07:40:56.857Z,987.29
2017-03-13T07:42:07.597Z,987.28
2017-03-13T07:43:17.913Z,987.25
2017-03-13T07:44:28.628Z,987.24
2017-03-13T07:45:39.334Z,987.17
2017-03-13T07:46:50.041Z,987.24
2017-03-13T07:48:00.372Z,987.17
2017-03-13T07:49:10.686Z,987.16
2017-03-13T07:50:21.002Z,987.21
2017-03-13T07:51:31.737Z,987.21
2017-03-13T07:52:42.462Z,987.19
2017-03-13T07:53:53.163Z,987.21
2017-03-13T07:55:03.886Z,987.16
2017-03-13T07:56:14.208Z,987.17
2017-03-13T07:57:24.931Z,987.16
2017-03-13T07:58:35.249Z,987.21
2017-03-13T07:59:45.954Z,987.22
2017-03-13T08:00:56.655Z,987.28
2017-03-13T08:02:07.388Z,987.33
2017-03-13T08:03:17.723Z,987.32
2017-03-13T08:04:28.057Z,987.33
2017-03-13T08:05:38.794Z,987.35
2017-03-13T08:06:49.550Z,987.36
2017-03-13T08:08:00.277Z,987.36
2017-03-13T08:09:10.590Z,987.39
2017-03-13T08:10:21.298Z,987.32
2017-03-13T08:11:32.002Z,987.31
2017-03-13T08:12:42.722Z,987.32
2017-03-13T08:13:53.058Z,987.32
2017-03-13T08:15:03.757Z,987.35
2017-03-13T08:16:14.498Z,987.31
2017-03-13T08:17:25.216Z,987.34
2017-03-13T08:18:35.537Z,987.37
2017-03-13T08:19:45.895Z,987.31
2017-03-13T08:20:56.596Z,987.31
2017-03-13T08:22:07.324Z,987.31
2017-03-13T08:23:18.041Z,987.29
2017-03-13T08:24:28.761Z,987.31
2017-03-13T08:25:38.707Z,987.31
2017-03-13T08:26:49.007Z,987.32
2017-03-13T08:27:59.339Z,987.35
2017-03-13T08:29:10.065Z,987.29
2017-03-13T08:30:20.800Z,987.27
2017-03-13T08:31:31.535Z,987.31
2017-03-13T08:32:42.272Z,987.37
2017-03-13T08:33:52.611Z,987.38
2017-03-13T08:35:02.942Z,987.4
2017-03-13T08:36:13.661Z,987.43
2017-03-13T08:37:24.389Z,987.4
2017-03-13T08:38:35.101Z,987.44
2017-03-13T08:39:45.871Z,987.46
2017-03-13T08:40:56.585Z,987.46
2017-03-13T08:42:07.329Z,987.51
2017-03-13T08:43:18.044Z,987.47
2017-03-13T08:44:28.780Z,987.47
2017-03-13T08:45:39.498Z,987.45
2017-03-13T08:46:50.208Z,987.48
2017-03-13T08:48:00.927Z,987.45
2017-03-13T08:49:11.641Z,987.46
2017-03-13T08:50:21.947Z,987.45
2017-03-13T08:51:32.675Z,987.41
2017-03-13T08:52:43.403Z,987.44
2017-03-13T08:53:54.131Z,987.35
2017-03-13T08:55:04.842Z,987.35
2017-03-13T08:56:15.564Z,987.32
2017-03-13T08:57:26.293Z,987.29
2017-03-13T08:58:37.003Z,987.3
2017-03-13T08:59:47.730Z,987.21
2017-03-13T09:00:58.452Z,987.21
2017-03-13T09:02:08.784Z,987.21
2017-03-13T09:03:18.709Z,987.13
2017-03-13T09:04:29.031Z,987.19
2017-03-13T09:05:39.783Z,987.11
2017-03-13T09:06:50.503Z,987.13
2017-03-13T09:08:01.214Z,987.06
2017-03-13T09:09:11.927Z,987.1
2017-03-13T09:10:22.655Z,987.09
2017-03-13T09:11:32.974Z,987.06
2017-03-13T09:12:43.698Z,987.07
2017-03-13T09:13:54.413Z,987.09
2017-03-13T09:15:05.136Z,987.14
2017-03-13T09:16:15.841Z,987.13
2017-03-13T09:17:25.787Z,987.11
2017-03-13T09:18:36.540Z,987.11
2017-03-13T09:19:47.246Z,987.11
2017-03-13T09:20:57.562Z,987.14
2017-03-13T09:22:08.309Z,987.09
2017-03-13T09:23:18.621Z,987.15
2017-03-13T09:24:29.325Z,987.14
2017-03-13T09:25:39.657Z,987.08
2017-03-13T09:26:50.395Z,987.07
2017-03-13T09:28:01.102Z,987.09
2017-03-13T09:29:11.428Z,987.08
2017-03-13T09:30:22.147Z,987.1
2017-03-13T09:31:32.871Z,987.03
2017-03-13T09:32:42.788Z,987.03
2017-03-13T09:33:53.509Z,987.01
2017-03-13T09:35:04.247Z,987
2017-03-13T09:36:14.973Z,987.08
2017-03-13T09:37:25.673Z,987.06
2017-03-13T09:38:35.976Z,987.07
2017-03-13T09:39:46.698Z,987.01
2017-03-13T09:40:57.420Z,987
2017-03-13T09:42:08.126Z,987.04
2017-03-13T09:43:18.861Z,987.03
2017-03-13T09:44:29.590Z,987.07
2017-03-13T09:45:40.315Z,987.04
2017-03-13T09:46:50.646Z,987.02
2017-03-13T09:48:01.374Z,987.04
2017-03-13T09:49:11.712Z,987.07
2017-03-13T09:50:22.420Z,987.09
2017-03-13T09:51:33.144Z,987.08
2017-03-13T09:52:43.864Z,987.09
2017-03-13T09:53:54.577Z,987.04
2017-03-13T09:55:05.295Z,987.01
2017-03-13T09:56:16.010Z,987.06
2017-03-13T09:57:26.330Z,987.03
2017-03-13T09:58:37.062Z,987.01
2017-03-13T09:59:47.779Z,987.01
2017-03-13T10:00:58.516Z,987
2017-03-13T10:02:09.214Z,987.03
2017-03-13T10:03:19.938Z,987.1
2017-03-13T10:04:30.650Z,987
2017-03-13T10:05:40.958Z,987.02
2017-03-13T10:06:51.265Z,986.97
2017-03-13T10:08:01.626Z,986.9
2017-03-13T10:09:11.955Z,986.97
2017-03-13T10:10:22.687Z,986.91
2017-03-13T10:11:33.432Z,986.91
2017-03-13T10:12:44.152Z,986.89
2017-03-13T10:13:54.855Z,986.89
2017-03-13T10:15:05.574Z,986.87
2017-03-13T10:16:15.894Z,986.85
2017-03-13T10:17:26.617Z,986.96
2017-03-13T10:18:36.542Z,986.9
2017-03-13T10:19:47.259Z,986.87
2017-03-13T10:20:57.987Z,986.94
2017-03-13T10:22:08.312Z,986.88
2017-03-13T10:23:19.044Z,986.89
2017-03-13T10:24:29.768Z,986.78
2017-03-13T10:25:40.103Z,986.78
2017-03-13T10:26:50.427Z,986.78
2017-03-13T10:28:00.731Z,986.79
2017-03-13T10:29:10.660Z,986.74
2017-03-13T10:30:20.978Z,986.75
2017-03-13T10:31:31.300Z,986.72
2017-03-13T10:32:41.613Z,986.78
2017-03-13T10:33:52.371Z,986.73
2017-03-13T10:35:02.713Z,986.74
2017-03-13T10:36:13.442Z,986.72
2017-03-13T10:37:23.815Z,986.77
2017-03-13T10:38:34.121Z,986.75
2017-03-13T10:39:44.042Z,986.74
2017-03-13T10:40:54.766Z,986.7
2017-03-13T10:42:05.478Z,986.76
2017-03-13T10:43:15.402Z,986.73
2017-03-13T10:44:26.111Z,986.75
2017-03-13T10:45:36.048Z,986.71
2017-03-13T10:46:46.770Z,986.6
2017-03-13T10:47:57.498Z,986.62
2017-03-13T10:49:08.213Z,986.6
2017-03-13T10:50:18.923Z,986.64
2017-03-13T10:51:29.656Z,986.6
2017-03-13T10:52:40.372Z,986.65
2017-03-13T10:53:50.701Z,986.59
2017-03-13T10:55:01.422Z,986.62
2017-03-13T10:56:12.136Z,986.63
2017-03-13T10:57:22.854Z,986.6
2017-03-13T10:58:33.580Z,986.66
2017-03-13T10:59:44.318Z,986.58
2017-03-13T11:00:54.257Z,986.64
2017-03-13T11:02:04.984Z,986.6
2017-03-13T11:03:15.309Z,986.57
2017-03-13T11:04:26.034Z,986.63
2017-03-13T11:05:36.786Z,986.65
2017-03-13T11:06:47.506Z,986.6
2017-03-13T11:07:58.219Z,986.58
2017-03-13T11:09:08.938Z,986.57
2017-03-13T11:10:19.663Z,986.65
2017-03-13T11:11:30.372Z,986.64
2017-03-13T11:12:40.692Z,986.63
2017-03-13T11:13:51.389Z,986.61
2017-03-13T11:15:02.101Z,986.58
2017-03-13T11:16:12.423Z,986.58
2017-03-13T11:17:22.760Z,986.57
2017-03-13T11:18:33.500Z,986.54
2017-03-13T11:19:44.217Z,986.57
2017-03-13T11:20:54.963Z,986.56
2017-03-13T11:22:05.689Z,986.47
2017-03-13T11:23:16.007Z,986.4
2017-03-13T11:24:26.746Z,986.48
2017-03-13T11:25:37.053Z,986.4
2017-03-13T11:26:47.774Z,986.33
2017-03-13T11:27:57.683Z,986.32
2017-03-13T11:29:07.988Z,986.34
2017-03-13T11:30:18.714Z,986.3
2017-03-13T11:31:29.039Z,986.27
2017-03-13T11:32:39.761Z,986.2
2017-03-13T11:33:50.492Z,986.2
2017-03-13T11:35:01.225Z,986.21
2017-03-13T11:36:11.953Z,986.17
2017-03-13T11:37:22.715Z,986.22
2017-03-13T11:38:33.448Z,986.22
2017-03-13T11:39:44.162Z,986.26
2017-03-13T11:40:54.881Z,986.21
2017-03-13T11:42:05.600Z,986.23
2017-03-13T11:43:15.953Z,986.2
2017-03-13T11:44:26.720Z,986.16
2017-03-13T11:45:37.086Z,986.12
2017-03-13T11:46:47.838Z,986.16
2017-03-13T11:47:57.759Z,986.13
2017-03-13T11:49:08.094Z,986.21
2017-03-13T11:50:18.810Z,986.17
2017-03-13T11:51:29.538Z,986.16
2017-03-13T11:52:40.263Z,986.2
2017-03-13T11:53:50.569Z,986.2
2017-03-13T11:55:00.883Z,986.23
2017-03-13T11:56:11.204Z,986.22
2017-03-13T11:57:21.937Z,986.2
2017-03-13T11:58:32.274Z,986.3
2017-03-13T11:59:43.012Z,986.14
2017-03-13T12:00:53.329Z,986.22
2017-03-13T12:02:03.661Z,986.18
2017-03-13T12:03:14.001Z,986.22
2017-03-13T12:04:24.707Z,986.14
2017-03-13T12:05:35.033Z,986.07
2017-03-13T12:06:45.747Z,986.05
2017-03-13T12:07:56.460Z,986.04
2017-03-13T12:09:07.228Z,985.99
2017-03-13T12:10:17.954Z,985.98
2017-03-13T12:11:28.284Z,986.06
2017-03-13T12:12:39.049Z,986.07
2017-03-13T12:13:49.764Z,986.07
2017-03-13T12:15:00.484Z,986.06
2017-03-13T12:16:10.816Z,986
2017-03-13T12:17:21.167Z,986.04
2017-03-13T12:18:31.471Z,986.02
2017-03-13T12:19:42.191Z,985.98
2017-03-13T12:20:52.899Z,986.07
2017-03-13T12:22:03.219Z,986.08
2017-03-13T12:23:13.939Z,986.06
2017-03-13T12:24:24.243Z,986.09
2017-03-13T12:25:34.556Z,986.15
2017-03-13T12:26:45.262Z,986.11
2017-03-13T12:27:55.596Z,986.1
2017-03-13T12:29:06.313Z,986.12
2017-03-13T12:30:16.623Z,986.12
2017-03-13T12:31:27.354Z,986.04
2017-03-13T12:32:38.086Z,986.13
2017-03-13T12:33:48.410Z,986.12
2017-03-13T12:34:59.118Z,986.2
2017-03-13T12:36:09.859Z,986.15
2017-03-13T12:37:20.586Z,986.18
2017-03-13T12:38:31.298Z,986.25
2017-03-13T12:39:42.026Z,986.19
2017-03-13T12:40:52.757Z,986.16
2017-03-13T12:42:03.067Z,986.12
2017-03-13T12:43:13.788Z,986.12
2017-03-13T12:44:24.548Z,986.07
2017-03-13T12:45:34.475Z,986.1
2017-03-13T12:46:45.201Z,986.07
2017-03-13T12:47:55.938Z,986.07
2017-03-13T12:49:06.654Z,986.09
2017-03-13T12:50:17.398Z,986.08
2017-03-13T12:51:28.111Z,986.1
2017-03-13T12:55:29.652Z,986.03
2017-03-13T12:56:39.973Z,986.03
2017-03-13T12:57:50.330Z,986.01
2017-03-13T12:59:00.640Z,986.05
2017-03-13T13:00:11.351Z,986
2017-03-13T13:01:22.050Z,985.92
2017-03-13T13:02:32.336Z,985.95
2017-03-13T13:03:42.615Z,985.92
2017-03-13T13:04:53.321Z,985.94
2017-03-13T13:06:03.610Z,985.94
2017-03-13T13:07:13.884Z,985.96
2017-03-13T13:08:24.167Z,985.92
2017-03-13T13:09:34.852Z,985.92
2017-03-13T13:10:45.541Z,985.9
2017-03-13T13:11:56.203Z,985.89
2017-03-13T13:13:06.482Z,985.92
2017-03-13T13:14:17.152Z,985.94
2017-03-13T13:15:27.040Z,985.94
2017-03-13T13:16:37.706Z,985.9
2017-03-13T13:17:47.981Z,985.95
2017-03-13T13:18:58.665Z,985.96
2017-03-13T13:20:08.943Z,985.92
2017-03-13T13:21:19.218Z,985.92
2017-03-13T13:22:29.885Z,985.92
2017-03-13T13:23:40.163Z,985.95
2017-03-13T13:24:50.041Z,985.95
2017-03-13T13:25:59.919Z,985.94
2017-03-13T13:27:10.597Z,986.02
2017-03-13T13:28:20.888Z,986.01
2017-03-13T13:29:30.773Z,985.87
2017-03-13T13:30:41.442Z,985.86
2017-03-13T13:31:51.735Z,985.81
2017-03-13T13:33:02.412Z,985.67
2017-03-13T13:34:13.083Z,985.66
2017-03-13T13:35:23.362Z,985.56
2017-03-13T13:36:34.042Z,985.63
2017-03-13T13:37:44.763Z,985.64
2017-03-13T13:38:55.442Z,985.61
2017-03-13T13:40:06.133Z,985.55
2017-03-13T13:41:16.826Z,985.65
2017-03-13T13:42:27.505Z,985.56
2017-03-13T13:43:37.389Z,985.52
2017-03-13T13:44:48.061Z,985.56
2017-03-13T13:45:58.341Z,985.57
2017-03-13T13:47:08.625Z,985.65
2017-03-13T13:48:18.903Z,985.6
2017-03-13T13:49:29.189Z,985.61
2017-03-13T13:50:39.463Z,985.64
2017-03-13T13:51:50.140Z,985.68
2017-03-13T13:53:00.814Z,985.69
2017-03-13T13:54:11.092Z,985.75
2017-03-13T13:55:21.774Z,985.8
2017-03-13T13:56:32.454Z,985.85
2017-03-13T13:57:43.131Z,985.83
2017-03-13T13:58:53.822Z,985.85
2017-03-13T14:00:04.503Z,985.83
2017-03-13T14:01:14.381Z,985.84
2017-03-13T14:02:25.059Z,985.83
2017-03-13T14:03:35.739Z,985.82
2017-03-13T14:04:46.409Z,985.8
2017-03-13T14:05:57.084Z,985.73
2017-03-13T14:07:07.772Z,985.75
2017-03-13T14:08:18.456Z,985.7
2017-03-13T14:09:28.342Z,985.69
2017-03-13T14:10:39.024Z,985.73
2017-03-13T14:11:49.701Z,985.75
2017-03-13T14:12:59.982Z,985.73
2017-03-13T14:14:10.663Z,985.65
2017-03-13T14:17:16.031Z,985.66
2017-03-13T14:18:25.914Z,985.56
2017-03-13T14:19:36.596Z,985.63
2017-03-13T14:23:52.200Z,985.64
2017-03-13T14:25:02.475Z,985.65
2017-03-13T14:26:13.146Z,985.66
2017-03-13T14:31:12.898Z,985.66
2017-03-13T14:32:23.572Z,985.65
2017-03-13T14:33:34.256Z,985.65
2017-03-13T14:34:44.925Z,985.68
2017-03-13T14:35:55.591Z,985.77
2017-03-13T14:48:29.747Z,985.45
2017-03-13T14:49:40.422Z,985.38
2017-03-13T14:50:51.093Z,985.42
2017-03-13T14:52:01.761Z,985.46
2017-03-13T14:53:12.443Z,985.42
2017-03-13T14:54:23.193Z,985.45
2017-03-13T14:56:05.156Z,985.55
2017-03-13T14:57:15.838Z,985.58
2017-03-13T14:58:26.586Z,985.6
2017-03-13T14:59:37.284Z,985.62
2017-03-13T15:10:38.147Z,985.32
2017-03-13T15:11:48.823Z,985.29
2017-03-13T15:44:46.244Z,985.25
2017-03-13T15:45:56.221Z,985.25
2017-03-13T15:47:06.920Z,985.23
2017-03-13T15:48:17.677Z,985.28
2017-03-13T15:49:27.972Z,985.33
2017-03-13T15:54:52.111Z,985.13